createdAt,value
2019-03-24T00:00:42.315Z,3.35
2019-03-24T00:01:42.293Z,3.42
2019-03-24T00:02:42.281Z,3.28
2019-03-24T00:03:42.270Z,3.30
2019-03-24T00:04:42.284Z,3.41
2019-03-24T00:05:42.249Z,3.60
2019-03-24T00:06:42.242Z,3.53
2019-03-24T00:07:42.229Z,3.49
2019-03-24T00:08:42.271Z,3.41
2019-03-24T00:09:42.227Z,3.34
2019-03-24T00:10:42.194Z,3.28
2019-03-24T00:11:42.202Z,3.26
2019-03-24T00:12:42.167Z,3.16
2019-03-24T00:13:42.158Z,3.26
2019-03-24T00:14:42.182Z,3.15
2019-03-24T00:15:42.159Z,3.44
2019-03-24T00:16:42.144Z,3.49
2019-03-24T00:17:42.114Z,3.49
2019-03-24T00:18:42.108Z,3.39
2019-03-24T00:19:42.094Z,3.25
2019-03-24T00:20:42.134Z,3.20
2019-03-24T00:21:42.079Z,3.25
2019-03-24T00:22:42.078Z,3.26
2019-03-24T00:23:42.048Z,3.20
2019-03-24T00:24:42.042Z,3.25
2019-03-24T00:25:42.047Z,3.30
2019-03-24T00:26:42.055Z,3.20
2019-03-24T00:27:42.011Z,3.23
2019-03-24T00:28:42.019Z,3.23
2019-03-24T00:29:41.982Z,3.20
2019-03-24T00:30:41.993Z,3.15
2019-03-24T00:31:41.984Z,3.25
2019-03-24T00:32:41.994Z,3.30
2019-03-24T00:33:41.939Z,3.33
2019-03-24T00:34:41.954Z,3.31
2019-03-24T00:35:41.918Z,3.26
2019-03-24T00:36:41.916Z,3.25
2019-03-24T00:37:41.926Z,3.25
2019-03-24T00:38:41.930Z,3.20
2019-03-24T00:39:41.889Z,3.15
2019-03-24T00:40:41.890Z,3.31
2019-03-24T00:41:41.858Z,3.19
2019-03-24T00:42:41.863Z,3.20
2019-03-24T00:43:41.842Z,3.19
2019-03-24T00:44:41.876Z,3.16
2019-03-24T00:45:41.817Z,3.13
2019-03-24T00:46:41.830Z,3.19
2019-03-24T00:47:41.795Z,3.15
2019-03-24T00:48:41.789Z,3.02
2019-03-24T00:49:41.774Z,3.07
2019-03-24T00:50:41.802Z,3.10
2019-03-24T00:51:41.754Z,3.13
2019-03-24T00:52:41.755Z,3.19
2019-03-24T00:53:41.727Z,3.20
2019-03-24T00:54:41.732Z,3.16
2019-03-24T00:55:41.710Z,3.20
2019-03-24T00:56:41.741Z,3.22
2019-03-24T00:57:41.710Z,3.17
2019-03-24T00:58:41.682Z,3.15
2019-03-24T00:59:41.673Z,3.08
2019-03-24T01:00:41.686Z,3.04
2019-03-24T01:01:41.681Z,3.10
2019-03-24T01:02:41.680Z,3.10
2019-03-24T01:03:41.632Z,3.02
2019-03-24T01:04:41.628Z,3.02
2019-03-24T01:05:41.597Z,3.01
2019-03-24T01:06:41.593Z,3.02
2019-03-24T01:07:41.584Z,3.02
2019-03-24T01:08:41.619Z,2.97
2019-03-24T01:09:41.584Z,2.98
2019-03-24T01:10:41.548Z,2.89
2019-03-24T01:11:41.546Z,3.16
2019-03-24T01:12:41.529Z,3.44
2019-03-24T01:13:41.518Z,3.20
2019-03-24T01:14:41.553Z,3.12
2019-03-24T01:15:47.719Z,3.08
2019-03-24T01:16:42.510Z,3.07
2019-03-24T01:17:41.469Z,3.02
2019-03-24T01:18:41.493Z,2.99
2019-03-24T01:19:41.491Z,2.98
2019-03-24T01:20:41.445Z,2.99
2019-03-24T01:21:41.430Z,2.86
2019-03-24T01:22:41.417Z,2.87
2019-03-24T01:23:41.407Z,2.97
2019-03-24T01:24:41.394Z,2.98
2019-03-24T01:25:56.066Z,2.99
2019-03-24T01:26:41.402Z,3.05
2019-03-24T01:27:41.368Z,2.84
2019-03-24T01:28:41.351Z,2.87
2019-03-24T01:29:41.353Z,2.87
2019-03-24T01:30:41.329Z,3.02
2019-03-24T01:31:41.365Z,3.07
2019-03-24T01:32:41.312Z,3.08
2019-03-24T01:33:41.299Z,3.07
2019-03-24T01:34:41.319Z,3.04
2019-03-24T01:35:41.281Z,3.04
2019-03-24T01:36:41.276Z,3.12
2019-03-24T01:37:41.300Z,3.07
2019-03-24T01:38:41.251Z,3.07
2019-03-24T01:39:41.235Z,3.12
2019-03-24T01:40:41.233Z,3.10
2019-03-24T01:41:41.216Z,3.04
2019-03-24T01:42:41.213Z,3.01
2019-03-24T01:43:41.239Z,2.97
2019-03-24T01:44:41.184Z,3.01
2019-03-24T01:45:41.179Z,3.04
2019-03-24T01:46:41.164Z,3.12
2019-03-24T01:47:41.147Z,3.08
2019-03-24T01:48:41.134Z,3.07
2019-03-24T01:49:41.166Z,3.08
2019-03-24T01:50:41.123Z,3.05
2019-03-24T01:51:41.107Z,2.99
2019-03-24T01:52:41.099Z,3.05
2019-03-24T01:53:41.086Z,3.02
2019-03-24T01:54:41.090Z,2.98
2019-03-24T01:55:41.108Z,3.02
2019-03-24T01:56:41.061Z,2.84
2019-03-24T01:57:41.045Z,2.98
2019-03-24T01:58:41.039Z,2.87
2019-03-24T01:59:41.027Z,3.01
2019-03-24T02:00:41.028Z,3.05
2019-03-24T02:01:41.040Z,3.05
2019-03-24T02:02:40.993Z,3.01
2019-03-24T02:03:40.977Z,2.86
2019-03-24T02:04:40.968Z,2.83
2019-03-24T02:05:40.966Z,2.89
2019-03-24T02:06:40.960Z,2.97
2019-03-24T02:07:40.971Z,2.92
2019-03-24T02:08:40.939Z,3.02
2019-03-24T02:09:40.952Z,2.86
2019-03-24T02:10:40.899Z,3.01
2019-03-24T02:11:40.891Z,3.02
2019-03-24T02:12:40.880Z,3.12
2019-03-24T02:13:40.884Z,3.05
2019-03-24T02:14:40.876Z,3.07
2019-03-24T02:15:40.897Z,3.12
2019-03-24T02:16:40.840Z,3.15
2019-03-24T02:17:40.831Z,3.10
2019-03-24T02:18:40.817Z,3.17
2019-03-24T02:19:40.807Z,3.15
2019-03-24T02:20:40.815Z,3.10
2019-03-24T02:21:40.830Z,3.04
2019-03-24T02:22:40.771Z,3.17
2019-03-24T02:23:40.765Z,3.08
2019-03-24T02:24:40.755Z,3.08
2019-03-24T02:25:40.743Z,3.04
2019-03-24T02:26:40.727Z,3.01
2019-03-24T02:27:40.774Z,3.08
2019-03-24T02:28:40.715Z,3.07
2019-03-24T02:29:40.712Z,3.16
2019-03-24T02:30:40.698Z,3.05
2019-03-24T02:31:40.681Z,3.16
2019-03-24T02:32:40.668Z,3.22
2019-03-24T02:33:40.743Z,3.20
2019-03-24T02:34:40.648Z,3.28
2019-03-24T02:35:40.634Z,3.23
2019-03-24T02:36:40.619Z,3.25
2019-03-24T02:37:40.618Z,3.34
2019-03-24T02:38:40.600Z,3.30
2019-03-24T02:39:40.636Z,3.19
2019-03-24T02:40:40.581Z,3.28
2019-03-24T02:41:40.607Z,3.15
2019-03-24T02:42:40.559Z,3.15
2019-03-24T02:43:40.551Z,3.15
2019-03-24T02:44:40.534Z,3.15
2019-03-24T02:45:40.530Z,3.20
2019-03-24T02:46:40.517Z,3.17
2019-03-24T02:47:40.537Z,3.25
2019-03-24T02:48:40.494Z,3.31
2019-03-24T02:49:40.486Z,3.34
2019-03-24T02:50:40.477Z,3.34
2019-03-24T02:51:40.467Z,3.31
2019-03-24T02:52:40.470Z,3.33
2019-03-24T02:53:40.471Z,3.39
2019-03-24T02:54:40.527Z,3.50
2019-03-24T02:55:40.427Z,3.54
2019-03-24T02:56:40.408Z,3.35
2019-03-24T02:57:40.399Z,3.37
2019-03-24T02:58:40.400Z,3.30
2019-03-24T02:59:40.385Z,3.31
2019-03-24T03:00:40.407Z,3.33
2019-03-24T03:01:40.351Z,3.37
2019-03-24T03:02:40.350Z,3.35
2019-03-24T03:03:40.331Z,3.39
2019-03-24T03:04:40.320Z,3.57
2019-03-24T03:05:40.319Z,3.52
2019-03-24T03:06:40.355Z,3.46
2019-03-24T03:07:40.308Z,3.39
2019-03-24T03:08:40.275Z,3.45
2019-03-24T03:09:40.275Z,3.28
2019-03-24T03:10:40.259Z,3.20
2019-03-24T03:11:40.278Z,3.34
2019-03-24T03:12:40.276Z,3.39
2019-03-24T03:13:40.226Z,3.35
2019-03-24T03:14:40.227Z,3.26
2019-03-24T03:15:40.211Z,3.31
2019-03-24T03:16:40.239Z,3.22
2019-03-24T03:17:40.187Z,3.31
2019-03-24T03:18:40.204Z,3.25
2019-03-24T03:19:40.167Z,3.28
2019-03-24T03:20:40.161Z,3.35
2019-03-24T03:21:40.140Z,3.25
2019-03-24T03:22:40.160Z,3.28
2019-03-24T03:23:40.124Z,3.23
2019-03-24T03:24:40.115Z,3.08
2019-03-24T03:25:40.094Z,3.07
2019-03-24T03:26:40.096Z,2.99
2019-03-24T03:27:40.118Z,3.02
2019-03-24T03:28:40.069Z,2.99
2019-03-24T03:29:40.052Z,3.16
2019-03-24T03:30:40.091Z,3.13
2019-03-24T03:31:40.029Z,3.13
2019-03-24T03:32:40.028Z,3.12
2019-03-24T03:33:40.044Z,3.02
2019-03-24T03:34:40.002Z,2.98
2019-03-24T03:35:39.999Z,3.05
2019-03-24T03:36:39.999Z,3.08
2019-03-24T03:37:39.969Z,3.12
2019-03-24T03:38:39.954Z,3.15
2019-03-24T03:39:39.997Z,3.05
2019-03-24T03:40:39.960Z,3.15
2019-03-24T03:41:39.933Z,3.08
2019-03-24T03:42:39.918Z,3.08
2019-03-24T03:43:39.906Z,3.10
2019-03-24T03:44:39.888Z,3.13
2019-03-24T03:45:39.922Z,3.19
2019-03-24T03:46:51.889Z,3.25
2019-03-24T03:47:40.864Z,3.25
2019-03-24T03:48:39.850Z,3.19
2019-03-24T03:49:39.842Z,3.28
2019-03-24T03:50:39.844Z,3.31
2019-03-24T03:51:39.852Z,3.35
2019-03-24T03:52:39.840Z,3.30
2019-03-24T03:53:39.796Z,3.16
2019-03-24T03:54:39.798Z,3.19
2019-03-24T03:55:39.783Z,3.17
2019-03-24T03:56:39.768Z,3.15
2019-03-24T03:57:39.794Z,3.25
2019-03-24T03:58:39.766Z,3.23
2019-03-24T03:59:39.726Z,3.46
2019-03-24T04:00:39.718Z,3.49
2019-03-24T04:01:39.713Z,3.68
2019-03-24T04:02:39.711Z,3.53
2019-03-24T04:03:39.740Z,3.52
2019-03-24T04:04:39.680Z,3.41
2019-03-24T04:05:39.663Z,3.34
2019-03-24T04:06:39.705Z,3.26
2019-03-24T04:07:39.639Z,3.28
2019-03-24T04:08:39.674Z,3.82
2019-03-24T04:09:39.692Z,3.88
2019-03-24T04:10:39.610Z,3.88
2019-03-24T04:11:39.613Z,3.81
2019-03-24T04:12:39.611Z,3.64
2019-03-24T04:13:39.583Z,3.56
2019-03-24T04:14:39.573Z,3.56
2019-03-24T04:15:39.615Z,3.60
2019-03-24T04:16:39.545Z,3.53
2019-03-24T04:17:39.540Z,3.42
2019-03-24T04:18:39.525Z,3.30
2019-03-24T04:19:39.508Z,3.22
2019-03-24T04:20:39.503Z,3.16
2019-03-24T04:21:39.564Z,3.17
2019-03-24T04:22:39.484Z,3.23
2019-03-24T04:23:39.471Z,3.26
2019-03-24T04:24:39.472Z,3.33
2019-03-24T04:25:39.521Z,3.39
2019-03-24T04:26:39.455Z,3.39
2019-03-24T04:27:39.424Z,3.37
2019-03-24T04:28:39.418Z,3.39
2019-03-24T04:29:39.424Z,3.42
2019-03-24T04:30:39.411Z,3.44
2019-03-24T04:31:39.431Z,3.45
2019-03-24T04:32:39.428Z,3.30
2019-03-24T04:33:39.360Z,3.35
2019-03-24T04:34:39.350Z,3.28
2019-03-24T04:35:39.349Z,3.30
2019-03-24T04:36:39.334Z,3.30
2019-03-24T04:37:39.319Z,3.20
2019-03-24T04:38:39.364Z,3.23
2019-03-24T04:39:39.306Z,3.15
2019-03-24T04:40:40.007Z,3.26
2019-03-24T04:41:39.620Z,3.25
2019-03-24T04:42:40.001Z,3.25
2019-03-24T04:43:39.261Z,3.25
2019-03-24T04:44:39.284Z,3.20
2019-03-24T04:45:39.241Z,3.22
2019-03-24T04:46:39.224Z,3.23
2019-03-24T04:47:39.212Z,3.23
2019-03-24T04:48:39.214Z,3.19
2019-03-24T04:49:39.207Z,3.50
2019-03-24T04:50:39.219Z,3.53
2019-03-24T04:51:39.166Z,3.50
2019-03-24T04:52:39.159Z,3.42
2019-03-24T04:53:39.146Z,3.26
2019-03-24T04:54:39.150Z,3.26
2019-03-24T04:55:39.135Z,3.25
2019-03-24T04:56:39.154Z,3.39
2019-03-24T04:57:39.144Z,3.35
2019-03-24T04:58:39.096Z,3.41
2019-03-24T04:59:39.095Z,3.53
2019-03-24T05:00:39.082Z,3.53
2019-03-24T05:01:39.062Z,3.42
2019-03-24T05:02:39.052Z,3.44
2019-03-24T05:03:39.073Z,3.46
2019-03-24T05:04:39.072Z,3.82
2019-03-24T05:05:39.020Z,3.86
2019-03-24T05:06:39.017Z,3.93
2019-03-24T05:07:39.000Z,3.96
2019-03-24T05:08:38.991Z,3.88
2019-03-24T05:09:39.007Z,3.86
2019-03-24T05:10:38.966Z,3.80
2019-03-24T05:11:38.958Z,3.78
2019-03-24T05:12:38.958Z,3.81
2019-03-24T05:13:38.937Z,3.77
2019-03-24T05:14:38.924Z,3.56
2019-03-24T05:15:38.952Z,3.50
2019-03-24T05:16:38.909Z,3.63
2019-03-24T05:17:38.893Z,3.82
2019-03-24T05:18:38.893Z,3.63
2019-03-24T05:19:38.870Z,3.49
2019-03-24T05:20:38.858Z,3.37
2019-03-24T05:21:38.893Z,3.49
2019-03-24T05:22:38.835Z,3.52
2019-03-24T05:23:38.836Z,3.53
2019-03-24T05:24:38.822Z,3.42
2019-03-24T05:25:38.805Z,3.62
2019-03-24T05:26:38.816Z,3.80
2019-03-24T05:27:38.822Z,3.86
2019-03-24T05:28:38.803Z,3.64
2019-03-24T05:29:38.759Z,3.50
2019-03-24T05:30:38.763Z,3.46
2019-03-24T05:31:38.776Z,3.56
2019-03-24T05:32:38.729Z,3.59
2019-03-24T05:33:38.725Z,3.59
2019-03-24T05:34:38.713Z,3.63
2019-03-24T05:35:38.702Z,3.57
2019-03-24T05:36:38.684Z,3.46
2019-03-24T05:37:38.709Z,3.77
2019-03-24T05:38:38.670Z,3.82
2019-03-24T05:39:38.650Z,4.04
2019-03-24T05:40:38.640Z,3.99
2019-03-24T05:41:38.636Z,4.07
2019-03-24T05:42:38.631Z,4.18
2019-03-24T05:43:38.655Z,4.02
2019-03-24T05:44:38.598Z,3.84
2019-03-24T05:45:38.622Z,3.81
2019-03-24T05:46:38.576Z,3.63
2019-03-24T05:47:38.568Z,3.63
2019-03-24T05:48:38.590Z,3.67
2019-03-24T05:49:38.547Z,3.62
2019-03-24T05:50:38.534Z,3.67
2019-03-24T05:51:38.571Z,3.60
2019-03-24T05:52:38.508Z,3.50
2019-03-24T05:53:38.509Z,3.53
2019-03-24T05:54:38.492Z,3.53
2019-03-24T05:55:38.486Z,3.53
2019-03-24T05:56:38.467Z,3.72
2019-03-24T05:57:38.494Z,3.77
2019-03-24T05:58:38.462Z,3.84
2019-03-24T05:59:38.436Z,3.77
2019-03-24T06:00:38.439Z,3.72
2019-03-24T06:01:38.436Z,3.68
2019-03-24T06:02:38.405Z,3.46
2019-03-24T06:03:38.429Z,3.56
2019-03-24T06:04:38.392Z,3.68
2019-03-24T06:05:38.372Z,3.74
2019-03-24T06:06:38.359Z,3.84
2019-03-24T06:07:38.364Z,4.00
2019-03-24T06:08:38.344Z,4.13
2019-03-24T06:09:38.371Z,4.14
2019-03-24T06:10:38.318Z,4.13
2019-03-24T06:11:38.320Z,4.11
2019-03-24T06:12:38.305Z,4.17
2019-03-24T06:13:38.286Z,4.28
2019-03-24T06:14:38.280Z,4.31
2019-03-24T06:15:38.308Z,4.44
2019-03-24T06:16:38.274Z,4.62
2019-03-24T06:17:47.328Z,4.59
2019-03-24T06:18:39.232Z,4.61
2019-03-24T06:19:38.233Z,4.74
2019-03-24T06:20:38.221Z,4.84
2019-03-24T06:21:38.245Z,4.90
2019-03-24T06:22:38.193Z,4.94
2019-03-24T06:23:38.180Z,4.90
2019-03-24T06:24:38.175Z,5.08
2019-03-24T06:25:38.180Z,5.11
2019-03-24T06:26:38.186Z,5.20
2019-03-24T06:27:38.137Z,5.22
2019-03-24T06:28:38.129Z,5.33
2019-03-24T06:29:38.120Z,5.52
2019-03-24T06:30:38.105Z,6.24
2019-03-24T06:31:38.098Z,6.89
2019-03-24T06:32:38.139Z,7.70
2019-03-24T06:33:38.077Z,8.21
2019-03-24T06:34:38.058Z,8.85
2019-03-24T06:35:38.056Z,9.26
2019-03-24T06:36:38.040Z,9.19
2019-03-24T06:37:38.029Z,9.22
2019-03-24T06:38:38.049Z,9.52
2019-03-24T06:39:38.050Z,9.70
2019-03-24T06:40:38.000Z,9.92
2019-03-24T06:41:37.987Z,10.46
2019-03-24T06:42:37.987Z,10.75
2019-03-24T06:43:37.963Z,11.03
2019-03-24T06:44:37.954Z,11.20
2019-03-24T06:45:37.983Z,11.46
2019-03-24T06:46:37.934Z,11.53
2019-03-24T06:47:37.927Z,11.45
2019-03-24T06:48:37.907Z,11.09
2019-03-24T06:49:37.905Z,10.69
2019-03-24T06:50:37.884Z,10.78
2019-03-24T06:51:37.918Z,10.87
2019-03-24T06:52:37.866Z,11.06
2019-03-24T06:53:37.864Z,11.21
2019-03-24T06:54:37.846Z,11.08
2019-03-24T06:55:37.838Z,10.76
2019-03-24T06:56:37.825Z,10.95
2019-03-24T06:57:37.850Z,10.94
2019-03-24T06:58:37.811Z,10.63
2019-03-24T06:59:37.811Z,10.31
2019-03-24T07:00:37.782Z,10.35
2019-03-24T07:01:37.770Z,10.63
2019-03-24T07:02:37.762Z,11.08
2019-03-24T07:03:37.789Z,11.20
2019-03-24T07:04:37.736Z,11.03
2019-03-24T07:05:37.736Z,10.88
2019-03-24T07:06:37.724Z,11.33
2019-03-24T07:07:37.708Z,11.44
2019-03-24T07:08:37.699Z,11.09
2019-03-24T07:09:37.720Z,10.66
2019-03-24T07:10:37.673Z,10.46
2019-03-24T07:11:37.664Z,10.29
2019-03-24T07:12:37.688Z,10.31
2019-03-24T07:13:37.751Z,10.39
2019-03-24T07:14:37.631Z,10.31
2019-03-24T07:15:37.652Z,10.36
2019-03-24T07:16:37.679Z,10.76
2019-03-24T07:17:37.783Z,11.12
2019-03-24T07:18:37.593Z,11.35
2019-03-24T07:19:37.574Z,11.77
2019-03-24T07:20:37.569Z,12.46
2019-03-24T07:21:37.592Z,12.25
2019-03-24T07:22:37.543Z,12.26
2019-03-24T07:23:37.532Z,12.03
2019-03-24T07:24:37.521Z,12.29
2019-03-24T07:25:37.514Z,12.29
2019-03-24T07:26:37.513Z,12.11
2019-03-24T07:27:37.550Z,11.72
2019-03-24T07:28:37.476Z,11.90
2019-03-24T07:29:37.496Z,12.12
2019-03-24T07:30:37.466Z,12.16
2019-03-24T07:31:37.466Z,12.31
2019-03-24T07:32:37.437Z,12.58
2019-03-24T07:33:37.461Z,12.70
2019-03-24T07:34:37.448Z,12.61
2019-03-24T07:35:37.422Z,12.46
2019-03-24T07:36:37.405Z,12.40
2019-03-24T07:37:37.393Z,12.51
2019-03-24T07:38:37.378Z,12.62
2019-03-24T07:39:37.400Z,12.87
2019-03-24T07:40:37.356Z,12.87
2019-03-24T07:41:37.340Z,12.71
2019-03-24T07:42:37.381Z,12.98
2019-03-24T07:43:37.322Z,12.89
2019-03-24T07:44:37.303Z,12.87
2019-03-24T07:45:37.331Z,13.03
2019-03-24T07:46:37.287Z,13.03
2019-03-24T07:47:37.274Z,12.96
2019-03-24T07:48:37.286Z,13.06
2019-03-24T07:49:37.251Z,13.03
2019-03-24T07:50:37.240Z,13.03
2019-03-24T07:51:37.274Z,13.03
2019-03-24T07:52:37.225Z,12.88
2019-03-24T07:53:37.211Z,12.74
2019-03-24T07:54:37.192Z,12.96
2019-03-24T07:55:37.193Z,13.32
2019-03-24T07:56:37.185Z,13.14
2019-03-24T07:57:37.202Z,12.99
2019-03-24T07:58:37.155Z,12.66
2019-03-24T07:59:37.156Z,12.73
2019-03-24T08:00:37.138Z,12.58
2019-03-24T08:01:37.128Z,12.91
2019-03-24T08:02:37.142Z,12.95
2019-03-24T08:03:37.141Z,13.28
2019-03-24T08:04:37.086Z,13.21
2019-03-24T08:05:37.085Z,13.19
2019-03-24T08:06:37.073Z,13.12
2019-03-24T08:07:37.058Z,13.12
2019-03-24T08:08:44.253Z,13.39
2019-03-24T08:09:38.072Z,13.57
2019-03-24T08:10:37.023Z,13.59
2019-03-24T08:11:37.022Z,13.39
2019-03-24T08:12:37.028Z,13.36
2019-03-24T08:13:36.998Z,13.83
2019-03-24T08:14:36.992Z,13.63
2019-03-24T08:15:37.015Z,13.35
2019-03-24T08:16:36.962Z,13.61
2019-03-24T08:17:36.949Z,13.51
2019-03-24T08:18:36.962Z,13.69
2019-03-24T08:19:36.924Z,13.84
2019-03-24T08:20:36.928Z,13.61
2019-03-24T08:21:36.954Z,13.50
2019-03-24T08:22:36.899Z,13.47
2019-03-24T08:23:36.879Z,13.41
2019-03-24T08:24:36.885Z,13.71
2019-03-24T08:25:36.877Z,14.02
2019-03-24T08:26:36.847Z,13.83
2019-03-24T08:27:36.883Z,13.96
2019-03-24T08:28:36.837Z,13.65
2019-03-24T08:29:36.818Z,13.93
2019-03-24T08:30:37.053Z,14.11
2019-03-24T08:31:37.071Z,13.88
2019-03-24T08:32:36.790Z,13.84
2019-03-24T08:33:36.820Z,13.57
2019-03-24T08:34:36.809Z,13.90
2019-03-24T08:35:36.766Z,13.65
2019-03-24T08:36:36.745Z,13.57
2019-03-24T08:37:36.736Z,13.54
2019-03-24T08:38:36.717Z,13.54
2019-03-24T08:39:36.755Z,13.83
2019-03-24T08:40:36.795Z,14.12
2019-03-24T08:41:38.728Z,14.63
2019-03-24T08:42:36.682Z,14.38
2019-03-24T08:43:36.701Z,14.11
2019-03-24T08:44:36.699Z,13.84
2019-03-24T08:45:36.699Z,13.93
2019-03-24T08:46:36.631Z,14.05
2019-03-24T08:47:36.638Z,14.30
2019-03-24T08:48:40.970Z,14.13
2019-03-24T08:49:36.617Z,13.96
2019-03-24T08:50:36.585Z,13.90
2019-03-24T08:51:36.627Z,14.05
2019-03-24T08:52:36.568Z,14.13
2019-03-24T08:53:36.569Z,14.11
2019-03-24T08:54:36.542Z,13.96
2019-03-24T08:55:36.657Z,14.11
2019-03-24T08:56:36.528Z,14.02
2019-03-24T08:57:36.561Z,14.23
2019-03-24T08:58:36.508Z,14.64
2019-03-24T08:59:36.490Z,14.64
2019-03-24T09:00:36.489Z,14.63
2019-03-24T09:01:36.496Z,14.41
2019-03-24T09:02:36.460Z,14.42
2019-03-24T09:03:36.482Z,14.48
2019-03-24T09:04:36.439Z,14.38
2019-03-24T09:05:36.465Z,14.72
2019-03-24T09:06:36.415Z,14.46
2019-03-24T09:07:36.972Z,14.54
2019-03-24T09:08:36.392Z,14.54
2019-03-24T09:09:36.415Z,14.45
2019-03-24T09:10:37.388Z,14.49
2019-03-24T09:11:36.353Z,14.45
2019-03-24T09:12:36.349Z,14.21
2019-03-24T09:13:36.336Z,14.36
2019-03-24T09:14:36.334Z,14.34
2019-03-24T09:15:36.375Z,14.30
2019-03-24T09:16:36.482Z,14.35
2019-03-24T09:17:36.368Z,14.27
2019-03-24T09:18:36.287Z,14.35
2019-03-24T09:19:36.294Z,14.35
2019-03-24T09:20:41.626Z,14.39
2019-03-24T09:21:37.444Z,14.13
2019-03-24T09:22:36.246Z,14.24
2019-03-24T09:23:36.228Z,14.29
2019-03-24T09:24:39.098Z,14.38
2019-03-24T09:25:36.287Z,14.24
2019-03-24T09:26:36.197Z,14.38
2019-03-24T09:27:36.206Z,14.74
2019-03-24T09:28:36.192Z,14.87
2019-03-24T09:29:37.071Z,14.82
2019-03-24T09:30:36.152Z,14.87
2019-03-24T09:31:36.175Z,14.86
2019-03-24T09:32:36.149Z,14.87
2019-03-24T09:33:36.142Z,14.85
2019-03-24T09:34:36.116Z,14.86
2019-03-24T09:35:36.094Z,15.12
2019-03-24T09:36:36.153Z,15.48
2019-03-24T09:37:36.092Z,14.83
2019-03-24T09:38:36.114Z,14.83
2019-03-24T09:39:36.071Z,14.74
2019-03-24T09:40:36.054Z,14.64
2019-03-24T09:41:36.178Z,15.07
2019-03-24T09:42:36.063Z,15.30
2019-03-24T09:43:36.052Z,15.37
2019-03-24T09:44:36.008Z,15.16
2019-03-24T09:45:39.252Z,15.34
2019-03-24T09:46:35.979Z,15.51
2019-03-24T09:47:35.969Z,15.60
2019-03-24T09:48:35.965Z,15.20
2019-03-24T09:49:35.945Z,14.98
2019-03-24T09:50:35.966Z,15.11
2019-03-24T09:51:35.965Z,15.35
2019-03-24T09:52:35.908Z,15.20
2019-03-24T09:53:35.926Z,15.11
2019-03-24T09:54:36.071Z,15.28
2019-03-24T09:55:35.887Z,15.31
2019-03-24T09:56:35.873Z,15.56
2019-03-24T09:57:35.890Z,15.30
2019-03-24T09:58:35.843Z,15.20
2019-03-24T09:59:35.914Z,14.95
2019-03-24T10:00:35.818Z,15.15
2019-03-24T10:01:35.828Z,15.11
2019-03-24T10:02:35.815Z,15.00
2019-03-24T10:03:35.864Z,15.09
2019-03-24T10:04:35.783Z,15.33
2019-03-24T10:05:35.829Z,15.53
2019-03-24T10:06:35.791Z,15.34
2019-03-24T10:07:35.769Z,15.38
2019-03-24T10:08:46.592Z,15.52
2019-03-24T10:09:36.725Z,15.38
2019-03-24T10:10:35.740Z,15.89
2019-03-24T10:11:35.775Z,16.27
2019-03-24T10:12:35.733Z,15.96
2019-03-24T10:13:35.679Z,16.08
2019-03-24T10:14:35.682Z,15.80
2019-03-24T10:15:35.698Z,15.78
2019-03-24T10:16:35.660Z,15.93
2019-03-24T10:17:35.681Z,15.76
2019-03-24T10:18:35.663Z,15.93
2019-03-24T10:19:35.633Z,15.56
2019-03-24T10:20:35.627Z,15.30
2019-03-24T10:21:35.615Z,15.55
2019-03-24T10:22:35.583Z,15.62
2019-03-24T10:23:36.322Z,15.51
2019-03-24T10:24:35.888Z,15.71
2019-03-24T10:25:36.113Z,15.81
2019-03-24T10:26:35.561Z,15.86
2019-03-24T10:27:35.818Z,15.78
2019-03-24T10:28:35.516Z,15.84
2019-03-24T10:29:35.540Z,15.98
2019-03-24T10:30:35.506Z,15.98
2019-03-24T10:31:35.484Z,15.88
2019-03-24T10:32:35.472Z,16.04
2019-03-24T10:33:35.463Z,16.33
2019-03-24T10:34:35.450Z,16.63
2019-03-24T10:35:35.650Z,16.13
2019-03-24T10:36:35.438Z,15.98
2019-03-24T10:37:37.317Z,16.07
2019-03-24T10:38:35.895Z,16.34
2019-03-24T10:39:35.401Z,16.25
2019-03-24T10:40:35.468Z,15.86
2019-03-24T10:41:36.886Z,15.98
2019-03-24T10:42:35.367Z,16.14
2019-03-24T10:43:37.584Z,15.96
2019-03-24T10:44:37.533Z,16.30
2019-03-24T10:45:35.963Z,16.63
2019-03-24T10:46:35.326Z,16.30
2019-03-24T10:47:35.351Z,16.59
2019-03-24T10:48:35.300Z,16.51
2019-03-24T10:49:35.292Z,16.29
2019-03-24T10:50:35.283Z,16.33
2019-03-24T10:51:35.923Z,16.30
2019-03-24T10:52:35.928Z,16.33
2019-03-24T10:53:35.287Z,16.47
2019-03-24T10:54:35.238Z,16.69
2019-03-24T10:55:35.225Z,17.02
2019-03-24T10:56:35.266Z,16.66
2019-03-24T10:57:35.204Z,16.50
2019-03-24T10:58:35.194Z,16.66
2019-03-24T10:59:35.183Z,16.75
2019-03-24T11:00:35.172Z,16.62
2019-03-24T11:01:35.171Z,16.37
2019-03-24T11:02:35.184Z,16.63
2019-03-24T11:03:35.140Z,16.60
2019-03-24T11:04:35.132Z,16.36
2019-03-24T11:05:35.120Z,16.18
2019-03-24T11:06:35.113Z,16.37
2019-03-24T11:07:35.100Z,16.34
2019-03-24T11:08:35.129Z,16.63
2019-03-24T11:09:35.077Z,16.32
2019-03-24T11:10:35.068Z,16.57
2019-03-24T11:11:35.064Z,16.33
2019-03-24T11:12:35.049Z,16.48
2019-03-24T11:13:35.033Z,16.10
2019-03-24T11:14:35.097Z,16.08
2019-03-24T11:15:35.011Z,16.17
2019-03-24T11:16:35.008Z,16.37
2019-03-24T11:17:34.987Z,16.57
2019-03-24T11:18:34.980Z,16.62
2019-03-24T11:19:35.944Z,16.59
2019-03-24T11:20:35.337Z,16.60
2019-03-24T11:21:42.281Z,16.59
2019-03-24T11:22:34.951Z,16.91
2019-03-24T11:23:34.922Z,16.80
2019-03-24T11:24:34.921Z,16.78
2019-03-24T11:25:34.906Z,16.82
2019-03-24T11:26:34.928Z,16.69
2019-03-24T11:27:34.896Z,16.69
2019-03-24T11:28:34.871Z,16.63
2019-03-24T11:29:34.857Z,16.57
2019-03-24T11:30:34.845Z,16.65
2019-03-24T11:31:34.875Z,16.14
2019-03-24T11:32:34.826Z,16.17
2019-03-24T11:33:34.822Z,16.32
2019-03-24T11:34:34.817Z,16.18
2019-03-24T11:35:34.797Z,16.23
2019-03-24T11:36:34.805Z,16.59
2019-03-24T11:37:34.823Z,16.62
2019-03-24T11:38:34.762Z,17.05
2019-03-24T11:39:34.779Z,17.30
2019-03-24T11:40:34.751Z,17.40
2019-03-24T11:41:34.730Z,17.22
2019-03-24T11:42:34.732Z,17.07
2019-03-24T11:43:34.746Z,16.99
2019-03-24T11:44:34.902Z,16.85
2019-03-24T11:45:34.713Z,16.87
2019-03-24T11:46:34.672Z,17.20
2019-03-24T11:47:34.660Z,17.10
2019-03-24T11:48:34.666Z,17.40
2019-03-24T11:49:34.700Z,17.35
2019-03-24T11:50:34.633Z,16.82
2019-03-24T11:51:34.634Z,16.63
2019-03-24T11:52:34.609Z,16.62
2019-03-24T11:53:34.595Z,16.84
2019-03-24T11:54:34.599Z,17.03
2019-03-24T11:55:34.597Z,17.14
2019-03-24T11:56:34.569Z,17.38
2019-03-24T11:57:34.573Z,17.42
2019-03-24T11:58:34.564Z,17.60
2019-03-24T11:59:34.532Z,17.86
2019-03-24T12:00:34.571Z,17.86
2019-03-24T12:01:38.518Z,17.70
2019-03-24T12:02:34.503Z,17.32
2019-03-24T12:03:34.561Z,17.33
2019-03-24T12:04:34.476Z,17.38
2019-03-24T12:05:34.476Z,17.71
2019-03-24T12:06:34.508Z,17.63
2019-03-24T12:07:34.474Z,17.65
2019-03-24T12:08:34.443Z,17.47
2019-03-24T12:09:34.454Z,17.45
2019-03-24T12:10:34.437Z,17.46
2019-03-24T12:11:34.402Z,17.43
2019-03-24T12:12:34.461Z,17.98
2019-03-24T12:13:34.411Z,17.84
2019-03-24T12:14:34.372Z,17.42
2019-03-24T12:15:34.374Z,17.46
2019-03-24T12:16:34.357Z,17.20
2019-03-24T12:17:34.342Z,17.55
2019-03-24T12:18:34.357Z,17.80
2019-03-24T12:19:34.353Z,17.86
2019-03-24T12:20:34.337Z,17.76
2019-03-24T12:21:34.330Z,17.84
2019-03-24T12:22:34.278Z,18.11
2019-03-24T12:23:34.273Z,18.21
2019-03-24T12:24:34.313Z,17.96
2019-03-24T12:25:34.264Z,17.83
2019-03-24T12:26:34.242Z,18.16
2019-03-24T12:27:34.243Z,17.92
2019-03-24T12:28:34.211Z,17.84
2019-03-24T12:29:34.240Z,17.68
2019-03-24T12:30:34.238Z,17.58
2019-03-24T12:31:34.196Z,17.35
2019-03-24T12:32:34.183Z,17.63
2019-03-24T12:33:34.187Z,17.87
2019-03-24T12:34:34.186Z,18.10
2019-03-24T12:35:34.223Z,18.41
2019-03-24T12:36:34.149Z,18.59
2019-03-24T12:37:34.137Z,18.31
2019-03-24T12:38:34.103Z,18.42
2019-03-24T12:39:34.095Z,18.84
2019-03-24T12:40:34.090Z,18.75
2019-03-24T12:41:34.108Z,18.35
2019-03-24T12:42:35.943Z,18.64
2019-03-24T12:43:34.050Z,18.47
2019-03-24T12:44:34.041Z,18.84
2019-03-24T12:45:34.048Z,18.42
2019-03-24T12:46:34.023Z,18.31
2019-03-24T12:47:34.045Z,18.23
2019-03-24T12:48:34.027Z,18.57
2019-03-24T12:49:33.986Z,18.35
2019-03-24T12:50:34.014Z,17.91
2019-03-24T12:51:33.973Z,18.36
2019-03-24T12:52:33.957Z,18.62
2019-03-24T12:53:33.962Z,18.68
2019-03-24T12:54:35.088Z,19.01
2019-03-24T12:55:33.930Z,19.16
2019-03-24T12:56:33.958Z,19.01
2019-03-24T12:57:33.899Z,18.93
2019-03-24T12:58:33.886Z,18.87
2019-03-24T12:59:33.898Z,18.83
2019-03-24T13:00:33.866Z,18.99
2019-03-24T13:01:33.871Z,19.30
2019-03-24T13:02:33.915Z,19.50
2019-03-24T13:03:35.836Z,18.91
2019-03-24T13:04:33.844Z,18.82
2019-03-24T13:05:33.826Z,18.74